Impacts METAR Board INFO
IDs:

KRWF - Redwood Falls Muni, MN, US

Updated at: 2003 UTC 19 Oct 2017
Potential Impact None Slight Moderate High
Time19/08Z 19/09Z 19/10Z 19/11Z 19/12Z 19/13Z 19/14Z 19/15Z 19/16Z 19/17Z 19/18Z 19/19Z 19/20Z
VIS10 10 10 10 10 10 10 10 10 10 10 10 10
CIG-- -- -- -- -- -- -- -- -- -- -- -- --
CoverCLRCLRCLRCLRCLRCLRCLRCLRCLRCLRCLRCLRCLR
FltCatVFRVFRVFRVFRVFRVFRVFRVFRVFRVFRVFRVFRVFR
WX--------------------------
WDir210170210160190180170160170180170180180
WSpd3 4 3 7 7 6 7 11 15 20 18 21 21
WGst-- -- -- -- -- -- -- -- -- -- -- 25 --
Raw hourly METARs
KRWF 190753Z AUTO 21003KT 10SM CLR 06/M01 A3004 RMK AO2 SLP172 T00561006
KRWF 190853Z AUTO 17004KT 10SM CLR 04/00 A3002 RMK AO2 SLP167 T00440000 58007
KRWF 190953Z AUTO 21003KT 10SM CLR 04/00 A3002 RMK AO2 SLP169 T00440000
KRWF 191053Z AUTO 16007KT 10SM CLR 03/00 A3003 RMK AO2 SLP173 T00280000
KRWF 191153Z AUTO 19007KT 10SM CLR 04/00 A3003 RMK AO2 SLP173 T00440000 10078 20028 50003
KRWF 191253Z AUTO 18006KT 10SM CLR 05/00 A3003 RMK AO2 SLP174 T00500000
KRWF 191353Z AUTO 17007KT 10SM CLR 07/01 A3003 RMK AO2 SLP175 T00720011
KRWF 191453Z AUTO 16011KT 10SM CLR 12/02 A3003 RMK AO2 SLP172 T01170017 50001
KRWF 191553Z AUTO 17015KT 10SM CLR 17/01 A3003 RMK AO2 SLP170 T01670006
KRWF 191653Z AUTO 18020KT 10SM CLR 20/M01 A3001 RMK AO2 SLP164 T02001006
KRWF 191753Z AUTO 17018KT 10SM CLR 21/01 A3000 RMK AO2 PK WND 18026/1707 SLP159 T02060006 10211 20044 58010
KRWF 191853Z AUTO 18021G25KT 10SM CLR 22/02 A2996 RMK AO2 SLP146 T02220022
KRWF 191953Z AUTO 18021KT 10SM CLR 23/04 A2993 RMK AO2 PK WND 19029/1934 SLP135 T02330039